sensor_id;sensor_type;location;lat;lon;timestamp;pressure;altitude;pressure_sealevel;temperature;humidity
73016;BME280;61893;50.074;14.440;2023-06-04T00:00:17;98734.88;;;11.62;49.00
73016;BME280;61893;50.074;14.440;2023-06-04T00:03:15;98724.91;;;11.46;49.40
73016;BME280;61893;50.074;14.440;2023-06-04T00:06:35;98732.47;;;11.33;49.99
73016;BME280;61893;50.074;14.440;2023-06-04T00:09:11;98727.78;;;11.35;49.85
73016;BME280;61893;50.074;14.440;2023-06-04T00:11:37;98727.41;;;11.30;50.22
73016;BME280;61893;50.074;14.440;2023-06-04T00:14:04;98719.88;;;11.25;50.28
73016;BME280;61893;50.074;14.440;2023-06-04T00:16:34;98719.34;;;11.40;50.01
73016;BME280;61893;50.074;14.440;2023-06-04T00:19:06;98713.34;;;11.38;50.43
73016;BME280;61893;50.074;14.440;2023-06-04T00:21:39;98714.16;;;11.38;50.25
73016;BME280;61893;50.074;14.440;2023-06-04T00:24:46;98720.03;;;11.24;50.49
73016;BME280;61893;50.074;14.440;2023-06-04T00:27:15;98706.34;;;11.37;50.46
73016;BME280;61893;50.074;14.440;2023-06-04T00:29:44;98703.50;;;11.38;50.14
73016;BME280;61893;50.074;14.440;2023-06-04T00:32:38;98706.78;;;11.32;50.62
73016;BME280;61893;50.074;14.440;2023-06-04T00:35:31;98713.34;;;11.20;50.41
73016;BME280;61893;50.074;14.440;2023-06-04T00:38:59;98703.75;;;11.27;50.90
73016;BME280;61893;50.074;14.440;2023-06-04T00:41:37;98705.88;;;11.23;51.09
73016;BME280;61893;50.074;14.440;2023-06-04T00:44:29;98708.00;;;11.20;51.19
73016;BME280;61893;50.074;14.440;2023-06-04T00:46:59;98699.50;;;11.16;50.98
73016;BME280;61893;50.074;14.440;2023-06-04T00:49:41;98696.66;;;11.18;51.14
73016;BME280;61893;50.074;14.440;2023-06-04T00:52:47;98699.84;;;11.03;51.67
73016;BME280;61893;50.074;14.440;2023-06-04T00:55:22;98705.28;;;11.12;51.28
73016;BME280;61893;50.074;14.440;2023-06-04T00:58:27;98698.94;;;11.13;51.22
73016;BME280;61893;50.074;14.440;2023-06-04T01:08:18;98704.22;;;11.04;51.58
73016;BME280;61893;50.074;14.440;2023-06-04T01:11:55;98702.22;;;10.89;52.07
73016;BME280;61893;50.074;14.440;2023-06-04T01:15:14;98698.03;;;10.86;52.35
73016;BME280;61893;50.074;14.440;2023-06-04T01:18:16;98700.91;;;10.93;52.24
73016;BME280;61893;50.074;14.440;2023-06-04T01:21:25;98693.59;;;10.77;52.91
73016;BME280;61893;50.074;14.440;2023-06-04T01:24:07;98699.84;;;10.58;53.63
73016;BME280;61893;50.074;14.440;2023-06-04T01:27:06;98694.19;;;10.71;52.80
73016;BME280;61893;50.074;14.440;2023-06-04T01:29:41;98697.88;;;10.88;52.55
73016;BME280;61893;50.074;14.440;2023-06-04T01:32:19;98697.63;;;10.81;52.87
73016;BME280;61893;50.074;14.440;2023-06-04T01:35:01;98695.38;;;10.58;53.45
73016;BME280;61893;50.074;14.440;2023-06-04T01:37:30;98690.09;;;10.76;52.70
73016;BME280;61893;50.074;14.440;2023-06-04T01:40:59;98684.88;;;10.85;52.50
73016;BME280;61893;50.074;14.440;2023-06-04T01:43:56;98682.25;;;10.75;52.93
73016;BME280;61893;50.074;14.440;2023-06-04T01:47:02;98688.28;;;10.77;52.96
73016;BME280;61893;50.074;14.440;2023-06-04T01:50:02;98679.66;;;10.65;53.28
73016;BME280;61893;50.074;14.440;2023-06-04T01:52:59;98674.94;;;10.59;53.40
73016;BME280;61893;50.074;14.440;2023-06-04T01:55:44;98679.88;;;10.54;53.07
73016;BME280;61893;50.074;14.440;2023-06-04T01:58:12;98683.56;;;10.71;53.31
73016;BME280;61893;50.074;14.440;2023-06-04T02:01:24;98680.69;;;10.54;53.54
73016;BME280;61893;50.074;14.440;2023-06-04T02:04:52;98678.78;;;10.47;54.16
73016;BME280;61893;50.074;14.440;2023-06-04T02:08:11;98680.66;;;10.36;53.87
73016;BME280;61893;50.074;14.440;2023-06-04T02:11:24;98675.25;;;10.28;54.24
73016;BME280;61893;50.074;14.440;2023-06-04T02:14:51;98677.47;;;10.23;54.35
73016;BME280;61893;50.074;14.440;2023-06-04T02:17:28;98682.84;;;10.13;54.76
73016;BME280;61893;50.074;14.440;2023-06-04T02:20:12;98679.03;;;10.16;54.55
73016;BME280;61893;50.074;14.440;2023-06-04T02:23:33;98682.00;;;10.13;54.75
73016;BME280;61893;50.074;14.440;2023-06-04T02:26:52;98684.84;;;10.02;54.99
73016;BME280;61893;50.074;14.440;2023-06-04T02:30:17;98691.69;;;9.95;55.70
73016;BME280;61893;50.074;14.440;2023-06-04T02:33:29;98691.72;;;9.85;56.50
73016;BME280;61893;50.074;14.440;2023-06-04T02:36:11;98698.28;;;9.90;57.59
73016;BME280;61893;50.074;14.440;2023-06-04T02:38:45;98688.38;;;9.83;58.33
73016;BME280;61893;50.074;14.440;2023-06-04T02:41:12;98692.56;;;9.85;58.59
73016;BME280;61893;50.074;14.440;2023-06-04T02:43:58;98699.88;;;9.74;59.28
73016;BME280;61893;50.074;14.440;2023-06-04T02:47:06;98706.16;;;9.82;58.88
73016;BME280;61893;50.074;14.440;2023-06-04T02:49:55;98695.22;;;9.85;58.80
73016;BME280;61893;50.074;14.440;2023-06-04T02:52:50;98699.03;;;9.73;59.25
73016;BME280;61893;50.074;14.440;2023-06-04T02:55:59;98703.66;;;9.61;59.73
73016;BME280;61893;50.074;14.440;2023-06-04T02:58:49;98708.50;;;9.76;58.72
73016;BME280;61893;50.074;14.440;2023-06-04T03:01:35;98716.63;;;9.84;56.20
73016;BME280;61893;50.074;14.440;2023-06-04T03:04:08;98717.88;;;9.89;56.34
73016;BME280;61893;50.074;14.440;2023-06-04T03:06:36;98713.25;;;9.91;56.70
73016;BME280;61893;50.074;14.440;2023-06-04T03:09:56;98720.75;;;10.06;55.87
73016;BME280;61893;50.074;14.440;2023-06-04T03:13:04;98718.53;;;10.11;55.54
73016;BME280;61893;50.074;14.440;2023-06-04T03:15:48;98727.75;;;10.17;54.90
73016;BME280;61893;50.074;14.440;2023-06-04T03:18:22;98721.66;;;10.24;54.06
73016;BME280;61893;50.074;14.440;2023-06-04T03:21:34;98727.69;;;10.26;54.34
73016;BME280;61893;50.074;14.440;2023-06-04T03:24:46;98732.75;;;10.29;55.56
73016;BME280;61893;50.074;14.440;2023-06-04T03:27:31;98727.97;;;10.23;55.72
73016;BME280;61893;50.074;14.440;2023-06-04T03:30:21;98732.47;;;10.32;56.03
73016;BME280;61893;50.074;14.440;2023-06-04T03:33:15;98733.56;;;10.40;55.91
73016;BME280;61893;50.074;14.440;2023-06-04T03:36:03;98735.38;;;10.39;55.47
73016;BME280;61893;50.074;14.440;2023-06-04T03:38:45;98744.97;;;10.59;54.98
73016;BME280;61893;50.074;14.440;2023-06-04T03:41:35;98745.66;;;11.07;53.88
73016;BME280;61893;50.074;14.440;2023-06-04T03:45:00;98748.25;;;12.75;49.38
73016;BME280;61893;50.074;14.440;2023-06-04T03:47:46;98747.63;;;13.72;46.42
73016;BME280;61893;50.074;14.440;2023-06-04T03:51:25;98747.91;;;14.27;45.13
73016;BME280;61893;50.074;14.440;2023-06-04T03:54:02;98749.53;;;14.60;44.03
73016;BME280;61893;50.074;14.440;2023-06-04T03:56:46;98745.16;;;15.30;42.52
73016;BME280;61893;50.074;14.440;2023-06-04T03:59:53;98746.78;;;16.08;40.22
73016;BME280;61893;50.074;14.440;2023-06-04T04:03:27;98744.03;;;16.46;38.79
73016;BME280;61893;50.074;14.440;2023-06-04T04:06:21;98748.47;;;16.98;37.60
73016;BME280;61893;50.074;14.440;2023-06-04T04:08:59;98752.56;;;17.52;36.49
73016;BME280;61893;50.074;14.440;2023-06-04T04:12:07;98754.44;;;18.51;34.56
73016;BME280;61893;50.074;14.440;2023-06-04T04:15:09;98751.34;;;19.56;32.54
73016;BME280;61893;50.074;14.440;2023-06-04T04:18:33;98753.53;;;19.13;33.25
73016;BME280;61893;50.074;14.440;2023-06-04T04:21:19;98754.94;;;19.77;31.93
73016;BME280;61893;50.074;14.440;2023-06-04T04:24:30;98747.63;;;20.51;30.95
73016;BME280;61893;50.074;14.440;2023-06-04T04:27:45;98755.91;;;21.41;29.55
73016;BME280;61893;50.074;14.440;2023-06-04T04:31:02;98749.56;;;21.85;28.75
73016;BME280;61893;50.074;14.440;2023-06-04T04:33:33;98749.97;;;22.39;28.25
73016;BME280;61893;50.074;14.440;2023-06-04T04:36:42;98749.03;;;22.01;26.66
73016;BME280;61893;50.074;14.440;2023-06-04T04:39:32;98750.50;;;20.82;29.06
73016;BME280;61893;50.074;14.440;2023-06-04T04:42:44;98756.28;;;23.13;25.92
73016;BME280;61893;50.074;14.440;2023-06-04T04:45:58;98751.84;;;23.91;24.74
73016;BME280;61893;50.074;14.440;2023-06-04T04:49:07;98746.84;;;24.53;24.20
73016;BME280;61893;50.074;14.440;2023-06-04T04:52:40;98753.09;;;24.54;24.03
73016;BME280;61893;50.074;14.440;2023-06-04T04:55:12;98754.94;;;25.40;22.70
73016;BME280;61893;50.074;14.440;2023-06-04T04:57:44;98749.19;;;25.25;22.38
73016;BME280;61893;50.074;14.440;2023-06-04T05:00:29;98750.66;;;25.16;22.62
73016;BME280;61893;50.074;14.440;2023-06-04T05:03:14;98750.78;;;25.21;22.78
73016;BME280;61893;50.074;14.440;2023-06-04T05:05:45;98759.44;;;24.94;23.07
73016;BME280;61893;50.074;14.440;2023-06-04T05:08:48;98759.06;;;25.43;22.16
73016;BME280;61893;50.074;14.440;2023-06-04T05:11:46;98768.78;;;26.64;21.22
73016;BME280;61893;50.074;14.440;2023-06-04T05:14:25;98763.66;;;26.89;20.82
73016;BME280;61893;50.074;14.440;2023-06-04T05:17:04;98768.19;;;27.01;20.98
73016;BME280;61893;50.074;14.440;2023-06-04T05:19:46;98767.63;;;26.99;20.87
73016;BME280;61893;50.074;14.440;2023-06-04T05:22:50;98773.81;;;26.72;20.70
73016;BME280;61893;50.074;14.440;2023-06-04T05:25:49;98771.97;;;27.16;20.59
73016;BME280;61893;50.074;14.440;2023-06-04T05:28:27;98777.22;;;27.23;19.89
73016;BME280;61893;50.074;14.440;2023-06-04T05:31:33;98776.09;;;27.68;19.86
73016;BME280;61893;50.074;14.440;2023-06-04T05:34:23;98783.44;;;27.90;19.32
73016;BME280;61893;50.074;14.440;2023-06-04T05:37:01;98776.63;;;29.04;18.30
73016;BME280;61893;50.074;14.440;2023-06-04T05:39:40;98778.66;;;29.29;18.10
73016;BME280;61893;50.074;14.440;2023-06-04T05:42:44;98778.81;;;29.07;18.35
73016;BME280;61893;50.074;14.440;2023-06-04T05:45:13;98784.06;;;29.09;18.19
73016;BME280;61893;50.074;14.440;2023-06-04T05:48:09;98784.97;;;27.53;19.33
73016;BME280;61893;50.074;14.440;2023-06-04T05:51:23;98782.13;;;27.21;20.15
73016;BME280;61893;50.074;14.440;2023-06-04T05:53:53;98790.06;;;27.45;20.00
73016;BME280;61893;50.074;14.440;2023-06-04T05:56:39;98794.03;;;27.59;19.58
73016;BME280;61893;50.074;14.440;2023-06-04T05:59:09;98794.16;;;28.28;18.71
73016;BME280;61893;50.074;14.440;2023-06-04T06:02:02;98787.34;;;28.31;19.15
73016;BME280;61893;50.074;14.440;2023-06-04T06:04:33;98794.25;;;28.39;19.19
73016;BME280;61893;50.074;14.440;2023-06-04T06:07:02;98793.91;;;28.30;18.99
73016;BME280;61893;50.074;14.440;2023-06-04T06:09:46;98793.13;;;25.86;22.32
73016;BME280;61893;50.074;14.440;2023-06-04T06:12:14;98793.69;;;28.37;19.79
73016;BME280;61893;50.074;14.440;2023-06-04T06:15:26;98800.78;;;29.12;18.60
73016;BME280;61893;50.074;14.440;2023-06-04T06:18:17;98802.16;;;30.03;17.76
73016;BME280;61893;50.074;14.440;2023-06-04T06:20:52;98801.28;;;27.70;19.86
73016;BME280;61893;50.074;14.440;2023-06-04T06:23:29;98801.50;;;28.55;19.27
73016;BME280;61893;50.074;14.440;2023-06-04T06:26:29;98806.00;;;30.02;18.10
73016;BME280;61893;50.074;14.440;2023-06-04T06:29:36;98810.97;;;30.82;17.55
73016;BME280;61893;50.074;14.440;2023-06-04T06:33:00;98817.56;;;30.50;17.29
73016;BME280;61893;50.074;14.440;2023-06-04T06:36:23;98810.91;;;31.03;16.68
73016;BME280;61893;50.074;14.440;2023-06-04T06:39:28;98815.34;;;30.63;17.29
73016;BME280;61893;50.074;14.440;2023-06-04T06:42:24;98816.91;;;31.15;16.53
73016;BME280;61893;50.074;14.440;2023-06-04T06:45:55;98819.44;;;28.78;17.70
73016;BME280;61893;50.074;14.440;2023-06-04T06:49:14;98821.72;;;31.54;16.06
73016;BME280;61893;50.074;14.440;2023-06-04T06:52:06;98827.50;;;31.47;15.91
73016;BME280;61893;50.074;14.440;2023-06-04T06:55:36;98824.69;;;30.57;16.76
73016;BME280;61893;50.074;14.440;2023-06-04T06:58:53;98828.28;;;30.32;16.85
73016;BME280;61893;50.074;14.440;2023-06-04T07:01:43;98829.63;;;30.80;16.54
73016;BME280;61893;50.074;14.440;2023-06-04T07:04:39;98828.69;;;31.26;15.97
73016;BME280;61893;50.074;14.440;2023-06-04T07:08:31;98832.66;;;30.73;16.78
73016;BME280;61893;50.074;14.440;2023-06-04T07:11:20;98826.88;;;27.64;19.25
73016;BME280;61893;50.074;14.440;2023-06-04T07:14:17;98832.41;;;29.40;18.05
73016;BME280;61893;50.074;14.440;2023-06-04T07:17:32;98831.53;;;30.90;16.24
73016;BME280;61893;50.074;14.440;2023-06-04T07:20:22;98830.88;;;29.70;17.94
73016;BME280;61893;50.074;14.440;2023-06-04T07:22:52;98832.06;;;30.20;17.00
73016;BME280;61893;50.074;14.440;2023-06-04T07:25:43;98831.28;;;30.81;16.44
73016;BME280;61893;50.074;14.440;2023-06-04T07:29:21;98831.59;;;32.49;15.23
73016;BME280;61893;50.074;14.440;2023-06-04T07:32:05;98844.88;;;31.37;16.30
73016;BME280;61893;50.074;14.440;2023-06-04T07:35:48;98841.94;;;31.78;15.64
73016;BME280;61893;50.074;14.440;2023-06-04T07:38:30;98840.22;;;32.32;15.24
73016;BME280;61893;50.074;14.440;2023-06-04T07:41:17;98838.09;;;32.24;15.55
73016;BME280;61893;50.074;14.440;2023-06-04T07:44:34;98840.31;;;30.56;16.53
73016;BME280;61893;50.074;14.440;2023-06-04T07:47:25;98838.72;;;30.35;17.11
73016;BME280;61893;50.074;14.440;2023-06-04T07:50:14;98836.44;;;31.73;15.93
73016;BME280;61893;50.074;14.440;2023-06-04T07:53:42;98833.28;;;32.98;15.14
73016;BME280;61893;50.074;14.440;2023-06-04T07:56:53;98835.75;;;32.02;15.27
73016;BME280;61893;50.074;14.440;2023-06-04T07:59:51;98824.91;;;32.84;14.50
73016;BME280;61893;50.074;14.440;2023-06-04T08:05:56;98825.81;;;30.40;16.75
73016;BME280;61893;50.074;14.440;2023-06-04T08:19:55;98827.31;;;27.12;19.49
73016;BME280;61893;50.074;14.440;2023-06-04T08:22:29;98821.97;;;28.90;18.37
73016;BME280;61893;50.074;14.440;2023-06-04T08:24:58;98817.78;;;28.72;18.90
73016;BME280;61893;50.074;14.440;2023-06-04T08:27:25;98826.84;;;28.78;18.21
73016;BME280;61893;50.074;14.440;2023-06-04T08:29:54;98831.53;;;28.82;18.17
73016;BME280;61893;50.074;14.440;2023-06-04T08:32:44;98821.78;;;27.73;19.23
73016;BME280;61893;50.074;14.440;2023-06-04T08:35:58;98821.91;;;30.05;17.28
73016;BME280;61893;50.074;14.440;2023-06-04T08:38:59;98818.13;;;30.22;16.89
73016;BME280;61893;50.074;14.440;2023-06-04T08:45:49;98819.38;;;28.30;17.62
73016;BME280;61893;50.074;14.440;2023-06-04T08:49:17;98827.81;;;29.51;16.44
73016;BME280;61893;50.074;14.440;2023-06-04T08:52:58;98825.72;;;29.84;16.68
73016;BME280;61893;50.074;14.440;2023-06-04T08:56:26;98819.19;;;29.27;17.32
73016;BME280;61893;50.074;14.440;2023-06-04T08:59:50;98826.34;;;30.47;15.57
73016;BME280;61893;50.074;14.440;2023-06-04T09:03:02;98825.69;;;29.69;15.65
73016;BME280;61893;50.074;14.440;2023-06-04T09:06:01;98823.03;;;30.71;15.04
73016;BME280;61893;50.074;14.440;2023-06-04T09:08:37;98823.81;;;29.79;16.48
73016;BME280;61893;50.074;14.440;2023-06-04T09:11:58;98827.94;;;28.77;17.69
73016;BME280;61893;50.074;14.440;2023-06-04T09:14:48;98819.44;;;29.21;17.17
73016;BME280;61893;50.074;14.440;2023-06-04T09:20:33;98818.88;;;29.86;16.06
73016;BME280;61893;50.074;14.440;2023-06-04T09:23:00;98828.25;;;30.16;15.40
73016;BME280;61893;50.074;14.440;2023-06-04T09:25:29;98826.19;;;27.96;15.99
73016;BME280;61893;50.074;14.440;2023-06-04T09:28:05;98827.75;;;27.04;17.19
73016;BME280;61893;50.074;14.440;2023-06-04T09:30:33;98833.69;;;28.11;16.69
73016;BME280;61893;50.074;14.440;2023-06-04T09:33:22;98827.84;;;29.04;16.23
73016;BME280;61893;50.074;14.440;2023-06-04T09:36:13;98827.28;;;28.59;17.13
73016;BME280;61893;50.074;14.440;2023-06-04T09:38:54;98833.28;;;27.48;17.51
73016;BME280;61893;50.074;14.440;2023-06-04T09:44:09;98829.84;;;26.96;18.59
73016;BME280;61893;50.074;14.440;2023-06-04T09:46:41;98828.19;;;25.94;20.13
73016;BME280;61893;50.074;14.440;2023-06-04T09:49:41;98828.41;;;24.30;21.16
73016;BME280;61893;50.074;14.440;2023-06-04T09:52:54;98819.50;;;23.80;22.58
73016;BME280;61893;50.074;14.440;2023-06-04T09:55:55;98807.34;;;23.53;22.28
73016;BME280;61893;50.074;14.440;2023-06-04T09:59:11;98812.06;;;23.27;23.10
73016;BME280;61893;50.074;14.440;2023-06-04T10:05:12;98821.66;;;23.60;22.13
73016;BME280;61893;50.074;14.440;2023-06-04T10:08:33;98813.94;;;24.17;22.32
73016;BME280;61893;50.074;14.440;2023-06-04T10:14:25;98803.72;;;23.89;22.29
73016;BME280;61893;50.074;14.440;2023-06-04T10:17:32;98816.03;;;23.06;23.47
73016;BME280;61893;50.074;14.440;2023-06-04T10:20:53;98814.94;;;23.81;22.79
73016;BME280;61893;50.074;14.440;2023-06-04T10:24:11;98812.38;;;23.49;22.56
73016;BME280;61893;50.074;14.440;2023-06-04T10:27:12;98793.31;;;23.37;22.93
73016;BME280;61893;50.074;14.440;2023-06-04T10:29:53;98804.09;;;22.52;22.86
73016;BME280;61893;50.074;14.440;2023-06-04T10:33:32;98805.19;;;22.19;24.05
73016;BME280;61893;50.074;14.440;2023-06-04T10:36:50;98797.19;;;21.68;25.20
73016;BME280;61893;50.074;14.440;2023-06-04T10:39:29;98799.00;;;21.35;25.77
73016;BME280;61893;50.074;14.440;2023-06-04T10:42:20;98801.56;;;21.24;24.16
73016;BME280;61893;50.074;14.440;2023-06-04T10:45:13;98797.81;;;21.11;24.26
73016;BME280;61893;50.074;14.440;2023-06-04T10:48:15;98796.41;;;21.09;25.26
73016;BME280;61893;50.074;14.440;2023-06-04T10:51:37;98802.81;;;21.14;25.46
73016;BME280;61893;50.074;14.440;2023-06-04T10:55:02;98792.63;;;21.17;25.38
73016;BME280;61893;50.074;14.440;2023-06-04T10:58:33;98795.47;;;21.35;24.13
73016;BME280;61893;50.074;14.440;2023-06-04T11:01:48;98789.53;;;21.06;25.54
73016;BME280;61893;50.074;14.440;2023-06-04T11:10:15;98794.41;;;20.84;25.22
73016;BME280;61893;50.074;14.440;2023-06-04T11:13:33;98783.16;;;20.87;25.64
73016;BME280;61893;50.074;14.440;2023-06-04T11:16:26;98787.50;;;20.95;25.58
73016;BME280;61893;50.074;14.440;2023-06-04T11:27:27;98784.31;;;21.11;25.69
73016;BME280;61893;50.074;14.440;2023-06-04T11:29:58;98780.41;;;21.01;25.04
73016;BME280;61893;50.074;14.440;2023-06-04T11:32:28;98781.53;;;20.60;26.14
73016;BME280;61893;50.074;14.440;2023-06-04T11:35:10;98783.53;;;20.91;26.27
73016;BME280;61893;50.074;14.440;2023-06-04T11:38:03;98778.06;;;21.18;26.02
73016;BME280;61893;50.074;14.440;2023-06-04T11:46:24;98773.97;;;20.88;23.49
73016;BME280;61893;50.074;14.440;2023-06-04T11:48:58;98779.34;;;21.02;23.45
73016;BME280;61893;50.074;14.440;2023-06-04T11:51:38;98774.69;;;20.64;23.58
73016;BME280;61893;50.074;14.440;2023-06-04T11:54:44;98778.53;;;21.01;23.02
73016;BME280;61893;50.074;14.440;2023-06-04T11:57:29;98776.19;;;21.11;23.77
73016;BME280;61893;50.074;14.440;2023-06-04T12:00:42;98773.66;;;21.17;23.78
73016;BME280;61893;50.074;14.440;2023-06-04T12:03:40;98772.25;;;21.07;23.87
73016;BME280;61893;50.074;14.440;2023-06-04T12:10:27;98764.84;;;21.41;23.59
73016;BME280;61893;50.074;14.440;2023-06-04T12:13:40;98766.03;;;21.07;24.02
73016;BME280;61893;50.074;14.440;2023-06-04T12:17:21;98764.75;;;21.54;24.16
73016;BME280;61893;50.074;14.440;2023-06-04T12:20:54;98756.81;;;21.59;24.67
73016;BME280;61893;50.074;14.440;2023-06-04T12:24:29;98756.72;;;21.41;24.57
73016;BME280;61893;50.074;14.440;2023-06-04T12:27:26;98752.72;;;21.82;24.06
73016;BME280;61893;50.074;14.440;2023-06-04T12:34:13;98753.22;;;22.29;22.68
73016;BME280;61893;50.074;14.440;2023-06-04T12:37:42;98741.13;;;21.68;24.04
73016;BME280;61893;50.074;14.440;2023-06-04T12:43:42;98741.19;;;22.80;23.97
73016;BME280;61893;50.074;14.440;2023-06-04T12:46:13;98752.19;;;22.67;23.75
73016;BME280;61893;50.074;14.440;2023-06-04T12:49:05;98744.06;;;22.67;23.00
73016;BME280;61893;50.074;14.440;2023-06-04T12:52:11;98745.69;;;22.49;22.93
73016;BME280;61893;50.074;14.440;2023-06-04T12:54:59;98744.31;;;22.40;23.52
73016;BME280;61893;50.074;14.440;2023-06-04T13:00:27;98740.88;;;22.52;23.41
73016;BME280;61893;50.074;14.440;2023-06-04T13:05:46;98746.44;;;22.57;22.62
73016;BME280;61893;50.074;14.440;2023-06-04T13:10:52;98736.88;;;22.36;22.77
73016;BME280;61893;50.074;14.440;2023-06-04T13:13:21;98736.38;;;22.64;22.72
73016;BME280;61893;50.074;14.440;2023-06-04T13:16:00;98736.50;;;22.51;22.42
73016;BME280;61893;50.074;14.440;2023-06-04T13:18:31;98731.78;;;22.64;22.61
73016;BME280;61893;50.074;14.440;2023-06-04T13:21:44;98717.69;;;22.92;21.49
73016;BME280;61893;50.074;14.440;2023-06-04T13:25:02;98728.69;;;22.61;22.39
73016;BME280;61893;50.074;14.440;2023-06-04T13:27:50;98735.00;;;22.55;22.79
73016;BME280;61893;50.074;14.440;2023-06-04T13:31:17;98730.91;;;22.27;23.57
73016;BME280;61893;50.074;14.440;2023-06-04T13:34:43;98720.81;;;22.34;23.76
73016;BME280;61893;50.074;14.440;2023-06-04T13:38:05;98716.41;;;22.77;23.45
73016;BME280;61893;50.074;14.440;2023-06-04T13:42:06;98721.22;;;23.11;22.94
73016;BME280;61893;50.074;14.440;2023-06-04T13:45:28;98711.47;;;23.22;22.83
73016;BME280;61893;50.074;14.440;2023-06-04T13:48:44;98717.69;;;22.56;22.22
73016;BME280;61893;50.074;14.440;2023-06-04T13:51:27;98706.44;;;22.89;21.99
73016;BME280;61893;50.074;14.440;2023-06-04T14:11:14;98698.97;;;23.03;20.12
73016;BME280;61893;50.074;14.440;2023-06-04T14:14:03;98689.16;;;23.20;20.15
73016;BME280;61893;50.074;14.440;2023-06-04T14:17:13;98696.47;;;23.50;19.73
73016;BME280;61893;50.074;14.440;2023-06-04T14:19:57;98697.56;;;22.82;20.90
73016;BME280;61893;50.074;14.440;2023-06-04T14:22:35;98696.53;;;22.94;20.09
73016;BME280;61893;50.074;14.440;2023-06-04T14:25:38;98693.53;;;23.21;19.86
73016;BME280;61893;50.074;14.440;2023-06-04T14:29:10;98688.66;;;22.75;20.07
73016;BME280;61893;50.074;14.440;2023-06-04T14:32:32;98688.28;;;23.08;19.00
73016;BME280;61893;50.074;14.440;2023-06-04T14:36:26;98694.66;;;23.13;19.09
73016;BME280;61893;50.074;14.440;2023-06-04T14:39:22;98693.94;;;22.88;19.15
73016;BME280;61893;50.074;14.440;2023-06-04T14:42:14;98685.59;;;23.20;18.69
73016;BME280;61893;50.074;14.440;2023-06-04T14:45:24;98680.50;;;23.42;18.70
73016;BME280;61893;50.074;14.440;2023-06-04T14:51:01;98681.19;;;23.07;19.83
73016;BME280;61893;50.074;14.440;2023-06-04T14:53:52;98680.22;;;23.01;19.66
73016;BME280;61893;50.074;14.440;2023-06-04T14:56:28;98687.31;;;23.02;19.47
73016;BME280;61893;50.074;14.440;2023-06-04T14:59:26;98677.47;;;23.20;19.47
73016;BME280;61893;50.074;14.440;2023-06-04T15:02:31;98681.28;;;23.00;20.03
73016;BME280;61893;50.074;14.440;2023-06-04T15:05:22;98678.06;;;22.73;20.82
73016;BME280;61893;50.074;14.440;2023-06-04T15:08:50;98675.53;;;22.90;20.90
73016;BME280;61893;50.074;14.440;2023-06-04T15:12:13;98664.53;;;23.03;20.41
73016;BME280;61893;50.074;14.440;2023-06-04T15:15:19;98672.69;;;22.85;21.43
73016;BME280;61893;50.074;14.440;2023-06-04T15:18:13;98670.44;;;22.82;21.01
73016;BME280;61893;50.074;14.440;2023-06-04T15:21:02;98672.47;;;22.68;21.28
73016;BME280;61893;50.074;14.440;2023-06-04T15:32:12;98656.34;;;23.22;21.18
73016;BME280;61893;50.074;14.440;2023-06-04T15:34:54;98655.41;;;22.98;21.18
73016;BME280;61893;50.074;14.440;2023-06-04T15:37:39;98660.78;;;23.04;20.96
73016;BME280;61893;50.074;14.440;2023-06-04T15:43:31;98665.72;;;22.89;21.16
73016;BME280;61893;50.074;14.440;2023-06-04T15:46:33;98659.19;;;22.97;21.06
73016;BME280;61893;50.074;14.440;2023-06-04T15:50:02;98670.28;;;22.77;21.16
73016;BME280;61893;50.074;14.440;2023-06-04T15:52:50;98658.09;;;22.67;21.64
73016;BME280;61893;50.074;14.440;2023-06-04T15:55:54;98661.97;;;23.08;21.23
73016;BME280;61893;50.074;14.440;2023-06-04T15:58:36;98668.25;;;22.54;21.58
73016;BME280;61893;50.074;14.440;2023-06-04T16:01:14;98658.38;;;22.59;21.57
73016;BME280;61893;50.074;14.440;2023-06-04T16:04:02;98664.47;;;22.55;21.98
73016;BME280;61893;50.074;14.440;2023-06-04T16:09:59;98663.22;;;22.57;21.86
73016;BME280;61893;50.074;14.440;2023-06-04T16:13:01;98669.25;;;22.59;21.62
73016;BME280;61893;50.074;14.440;2023-06-04T16:16:44;98676.31;;;22.60;22.23
73016;BME280;61893;50.074;14.440;2023-06-04T16:19:44;98665.84;;;22.64;22.04
73016;BME280;61893;50.074;14.440;2023-06-04T16:22:55;98660.25;;;22.40;21.70
73016;BME280;61893;50.074;14.440;2023-06-04T16:25:52;98654.56;;;22.30;22.44
73016;BME280;61893;50.074;14.440;2023-06-04T16:29:36;98648.31;;;22.30;22.39
73016;BME280;61893;50.074;14.440;2023-06-04T16:32:41;98655.91;;;22.39;22.38
73016;BME280;61893;50.074;14.440;2023-06-04T16:35:30;98654.78;;;22.47;22.36
73016;BME280;61893;50.074;14.440;2023-06-04T16:42:26;98650.06;;;21.99;22.45
73016;BME280;61893;50.074;14.440;2023-06-04T16:46:21;98648.94;;;22.07;22.70
73016;BME280;61893;50.074;14.440;2023-06-04T16:49:05;98650.56;;;21.89;22.75
73016;BME280;61893;50.074;14.440;2023-06-04T16:51:55;98650.41;;;22.02;22.47
73016;BME280;61893;50.074;14.440;2023-06-04T16:55:15;98644.97;;;21.84;22.72
73016;BME280;61893;50.074;14.440;2023-06-04T16:58:41;98648.53;;;22.03;22.45
73016;BME280;61893;50.074;14.440;2023-06-04T17:01:34;98650.97;;;21.86;22.63
73016;BME280;61893;50.074;14.440;2023-06-04T17:04:30;98659.44;;;21.96;22.92
73016;BME280;61893;50.074;14.440;2023-06-04T17:07:34;98643.75;;;21.80;23.09
73016;BME280;61893;50.074;14.440;2023-06-04T17:13:55;98651.88;;;21.80;22.87
73016;BME280;61893;50.074;14.440;2023-06-04T17:16:56;98651.56;;;21.45;23.01
73016;BME280;61893;50.074;14.440;2023-06-04T17:20:14;98645.63;;;21.54;23.21
73016;BME280;61893;50.074;14.440;2023-06-04T17:23:52;98646.50;;;21.55;23.60
73016;BME280;61893;50.074;14.440;2023-06-04T17:27:16;98645.50;;;21.49;22.88